Pevely, Missouri
Current Conditions -  °F | °C
As of 6:53 PM on Tuesday 21 Oct 2014 (Local Time) from KCPS Reporting Station
Clear Clear  
Wind Chill: 58°   Ceiling: Unl
Heat Index: 58°   Visibility: 10mi
Dew Point: 45°   Wind: 7mph
Humidity: 62%   Direction: 40°NE
Pressure: 30.14"   Gusts: NA
Location:  38.28°N, 90.4°W
Report Text: KCPS 212353Z 04006KT 10SM CLR 14/07 A3014 RMK AO2 SLP205 T01440072 10206 20144 53009
Loading
Personal Weather Stations






























Interactive Weather Map
Tropical Storm Tracking
New forecast layout! Learn more

10-Day Weather Forecast

Advertisements
Track Severe Weather on mobile